sensor_id;sensor_type;location;lat;lon;timestamp;P1;durP1;ratioP1;P2;durP2;ratioP2
56116;SDS011;41989;45.356;20.392;2024-02-16T00:00:17;209.73;;;112.50;;
56116;SDS011;41989;45.356;20.392;2024-02-16T00:02:43;211.20;;;114.03;;
56116;SDS011;41989;45.356;20.392;2024-02-16T00:05:11;204.82;;;110.38;;
56116;SDS011;41989;45.356;20.392;2024-02-16T00:07:37;196.73;;;105.80;;
56116;SDS011;41989;45.356;20.392;2024-02-16T00:10:04;188.95;;;103.32;;
56116;SDS011;41989;45.356;20.392;2024-02-16T00:12:31;211.70;;;113.13;;
56116;SDS011;41989;45.356;20.392;2024-02-16T00:15:00;211.13;;;115.43;;
56116;SDS011;41989;45.356;20.392;2024-02-16T00:17:27;207.75;;;112.55;;
56116;SDS011;41989;45.356;20.392;2024-02-16T00:19:53;211.95;;;115.40;;
56116;SDS011;41989;45.356;20.392;2024-02-16T00:22:19;223.77;;;118.13;;
56116;SDS011;41989;45.356;20.392;2024-02-16T00:24:46;224.48;;;119.93;;
56116;SDS011;41989;45.356;20.392;2024-02-16T00:27:13;219.15;;;118.32;;
56116;SDS011;41989;45.356;20.392;2024-02-16T00:29:39;219.50;;;118.57;;
56116;SDS011;41989;45.356;20.392;2024-02-16T00:32:05;214.18;;;116.78;;
56116;SDS011;41989;45.356;20.392;2024-02-16T00:34:35;200.25;;;110.35;;
56116;SDS011;41989;45.356;20.392;2024-02-16T00:37:02;208.52;;;110.90;;
56116;SDS011;41989;45.356;20.392;2024-02-16T00:39:35;202.63;;;110.43;;
56116;SDS011;41989;45.356;20.392;2024-02-16T00:42:02;219.82;;;118.32;;
56116;SDS011;41989;45.356;20.392;2024-02-16T00:44:28;210.00;;;114.13;;
56116;SDS011;41989;45.356;20.392;2024-02-16T00:46:54;206.35;;;114.70;;
56116;SDS011;41989;45.356;20.392;2024-02-16T00:49:20;217.80;;;115.40;;
56116;SDS011;41989;45.356;20.392;2024-02-16T00:51:47;237.80;;;126.18;;
56116;SDS011;41989;45.356;20.392;2024-02-16T00:54:13;216.55;;;115.43;;
56116;SDS011;41989;45.356;20.392;2024-02-16T00:56:39;212.23;;;115.40;;
56116;SDS011;41989;45.356;20.392;2024-02-16T00:59:05;199.65;;;110.40;;
56116;SDS011;41989;45.356;20.392;2024-02-16T01:01:34;213.07;;;112.88;;
56116;SDS011;41989;45.356;20.392;2024-02-16T01:04:00;197.80;;;107.15;;
56116;SDS011;41989;45.356;20.392;2024-02-16T01:06:27;204.65;;;113.43;;
56116;SDS011;41989;45.356;20.392;2024-02-16T01:08:53;186.82;;;103.93;;
56116;SDS011;41989;45.356;20.392;2024-02-16T01:11:20;192.32;;;106.57;;
56116;SDS011;41989;45.356;20.392;2024-02-16T01:13:46;197.55;;;105.85;;
56116;SDS011;41989;45.356;20.392;2024-02-16T01:16:12;197.63;;;107.13;;
56116;SDS011;41989;45.356;20.392;2024-02-16T01:18:39;188.00;;;104.03;;
56116;SDS011;41989;45.356;20.392;2024-02-16T01:21:05;192.65;;;107.75;;
56116;SDS011;41989;45.356;20.392;2024-02-16T01:23:32;196.40;;;104.68;;
56116;SDS011;41989;45.356;20.392;2024-02-16T01:25:58;195.80;;;106.80;;
56116;SDS011;41989;45.356;20.392;2024-02-16T01:28:24;186.48;;;102.25;;
56116;SDS011;41989;45.356;20.392;2024-02-16T01:30:50;220.00;;;112.82;;
56116;SDS011;41989;45.356;20.392;2024-02-16T01:33:16;198.70;;;106.50;;
56116;SDS011;41989;45.356;20.392;2024-02-16T01:35:42;177.00;;;95.63;;
56116;SDS011;41989;45.356;20.392;2024-02-16T01:38:08;176.10;;;97.00;;
56116;SDS011;41989;45.356;20.392;2024-02-16T01:40:34;191.73;;;100.15;;
56116;SDS011;41989;45.356;20.392;2024-02-16T01:43:01;174.85;;;94.95;;
56116;SDS011;41989;45.356;20.392;2024-02-16T01:45:27;169.93;;;92.28;;
56116;SDS011;41989;45.356;20.392;2024-02-16T01:47:53;164.57;;;93.53;;
56116;SDS011;41989;45.356;20.392;2024-02-16T01:50:20;173.18;;;96.93;;
56116;SDS011;41989;45.356;20.392;2024-02-16T01:52:47;177.75;;;94.32;;
56116;SDS011;41989;45.356;20.392;2024-02-16T01:55:14;178.95;;;99.78;;
56116;SDS011;41989;45.356;20.392;2024-02-16T01:57:44;167.95;;;93.50;;
56116;SDS011;41989;45.356;20.392;2024-02-16T02:00:11;170.57;;;92.17;;
56116;SDS011;41989;45.356;20.392;2024-02-16T02:02:40;159.63;;;90.97;;
56116;SDS011;41989;45.356;20.392;2024-02-16T02:05:06;169.55;;;92.97;;
56116;SDS011;41989;45.356;20.392;2024-02-16T02:07:32;153.73;;;89.78;;
56116;SDS011;41989;45.356;20.392;2024-02-16T02:09:59;165.48;;;92.88;;
56116;SDS011;41989;45.356;20.392;2024-02-16T02:12:25;168.05;;;94.40;;
56116;SDS011;41989;45.356;20.392;2024-02-16T02:14:51;161.82;;;93.00;;
56116;SDS011;41989;45.356;20.392;2024-02-16T02:17:18;155.75;;;88.68;;
56116;SDS011;41989;45.356;20.392;2024-02-16T02:19:47;143.38;;;84.90;;
56116;SDS011;41989;45.356;20.392;2024-02-16T02:22:14;146.68;;;84.13;;
56116;SDS011;41989;45.356;20.392;2024-02-16T02:24:40;150.95;;;85.30;;
56116;SDS011;41989;45.356;20.392;2024-02-16T02:27:07;139.07;;;80.65;;
56116;SDS011;41989;45.356;20.392;2024-02-16T02:29:33;140.38;;;79.07;;
56116;SDS011;41989;45.356;20.392;2024-02-16T02:31:59;140.88;;;79.95;;
56116;SDS011;41989;45.356;20.392;2024-02-16T02:34:25;130.63;;;74.68;;
56116;SDS011;41989;45.356;20.392;2024-02-16T02:36:51;109.57;;;61.03;;
56116;SDS011;41989;45.356;20.392;2024-02-16T02:39:18;80.40;;;47.70;;
56116;SDS011;41989;45.356;20.392;2024-02-16T02:41:44;65.93;;;38.90;;
56116;SDS011;41989;45.356;20.392;2024-02-16T02:44:10;72.07;;;40.70;;
56116;SDS011;41989;45.356;20.392;2024-02-16T02:46:36;70.07;;;39.55;;
56116;SDS011;41989;45.356;20.392;2024-02-16T02:49:03;62.92;;;38.97;;
56116;SDS011;41989;45.356;20.392;2024-02-16T02:51:29;61.65;;;36.67;;
56116;SDS011;41989;45.356;20.392;2024-02-16T02:53:55;62.97;;;37.58;;
56116;SDS011;41989;45.356;20.392;2024-02-16T02:56:21;64.25;;;39.05;;
56116;SDS011;41989;45.356;20.392;2024-02-16T02:58:48;61.35;;;37.45;;
56116;SDS011;41989;45.356;20.392;2024-02-16T03:01:14;58.20;;;35.55;;
56116;SDS011;41989;45.356;20.392;2024-02-16T03:03:40;59.55;;;36.70;;
56116;SDS011;41989;45.356;20.392;2024-02-16T03:06:08;56.25;;;35.03;;
56116;SDS011;41989;45.356;20.392;2024-02-16T03:08:37;63.88;;;37.30;;
56116;SDS011;41989;45.356;20.392;2024-02-16T03:11:03;61.33;;;37.50;;
56116;SDS011;41989;45.356;20.392;2024-02-16T03:13:29;59.83;;;38.88;;
56116;SDS011;41989;45.356;20.392;2024-02-16T03:15:58;67.43;;;40.42;;
56116;SDS011;41989;45.356;20.392;2024-02-16T03:18:24;66.88;;;38.17;;
56116;SDS011;41989;45.356;20.392;2024-02-16T03:20:50;57.60;;;35.22;;
56116;SDS011;41989;45.356;20.392;2024-02-16T03:23:16;51.17;;;33.17;;
56116;SDS011;41989;45.356;20.392;2024-02-16T03:25:43;53.58;;;34.63;;
56116;SDS011;41989;45.356;20.392;2024-02-16T03:28:12;56.03;;;35.10;;
56116;SDS011;41989;45.356;20.392;2024-02-16T03:30:38;60.30;;;34.75;;
56116;SDS011;41989;45.356;20.392;2024-02-16T03:33:04;63.58;;;34.58;;
56116;SDS011;41989;45.356;20.392;2024-02-16T03:35:31;58.05;;;33.47;;
56116;SDS011;41989;45.356;20.392;2024-02-16T03:37:57;58.30;;;35.90;;
56116;SDS011;41989;45.356;20.392;2024-02-16T03:40:26;69.85;;;38.00;;
56116;SDS011;41989;45.356;20.392;2024-02-16T03:42:52;71.00;;;38.83;;
56116;SDS011;41989;45.356;20.392;2024-02-16T03:45:18;58.38;;;36.42;;
56116;SDS011;41989;45.356;20.392;2024-02-16T03:47:45;65.85;;;37.83;;
56116;SDS011;41989;45.356;20.392;2024-02-16T03:50:13;65.40;;;37.97;;
56116;SDS011;41989;45.356;20.392;2024-02-16T03:52:40;68.13;;;40.15;;
56116;SDS011;41989;45.356;20.392;2024-02-16T03:55:06;75.88;;;43.58;;
56116;SDS011;41989;45.356;20.392;2024-02-16T03:57:32;73.47;;;43.33;;
56116;SDS011;41989;45.356;20.392;2024-02-16T03:59:58;64.57;;;39.60;;
56116;SDS011;41989;45.356;20.392;2024-02-16T04:02:25;67.18;;;40.00;;
56116;SDS011;41989;45.356;20.392;2024-02-16T04:04:51;64.00;;;39.35;;
56116;SDS011;41989;45.356;20.392;2024-02-16T04:07:17;61.13;;;38.40;;
56116;SDS011;41989;45.356;20.392;2024-02-16T04:09:43;77.50;;;41.80;;
56116;SDS011;41989;45.356;20.392;2024-02-16T04:12:09;61.72;;;37.13;;
56116;SDS011;41989;45.356;20.392;2024-02-16T04:14:35;61.53;;;35.85;;
56116;SDS011;41989;45.356;20.392;2024-02-16T04:17:01;62.33;;;35.17;;
56116;SDS011;41989;45.356;20.392;2024-02-16T04:19:28;60.03;;;37.00;;
56116;SDS011;41989;45.356;20.392;2024-02-16T04:21:54;58.30;;;35.60;;
56116;SDS011;41989;45.356;20.392;2024-02-16T04:24:21;63.35;;;36.15;;
56116;SDS011;41989;45.356;20.392;2024-02-16T04:26:47;58.38;;;34.80;;
56116;SDS011;41989;45.356;20.392;2024-02-16T04:29:14;50.13;;;32.22;;
56116;SDS011;41989;45.356;20.392;2024-02-16T04:31:41;56.90;;;33.95;;
56116;SDS011;41989;45.356;20.392;2024-02-16T04:34:10;53.58;;;32.13;;
56116;SDS011;41989;45.356;20.392;2024-02-16T04:36:36;60.33;;;36.08;;
56116;SDS011;41989;45.356;20.392;2024-02-16T04:39:02;62.22;;;35.80;;
56116;SDS011;41989;45.356;20.392;2024-02-16T04:41:29;69.53;;;36.30;;
56116;SDS011;41989;45.356;20.392;2024-02-16T04:43:55;55.90;;;34.88;;
56116;SDS011;41989;45.356;20.392;2024-02-16T04:46:21;59.97;;;34.65;;
56116;SDS011;41989;45.356;20.392;2024-02-16T04:48:48;59.38;;;35.65;;
56116;SDS011;41989;45.356;20.392;2024-02-16T04:51:14;60.22;;;33.85;;
56116;SDS011;41989;45.356;20.392;2024-02-16T04:53:40;61.85;;;34.67;;
56116;SDS011;41989;45.356;20.392;2024-02-16T04:56:06;60.70;;;38.30;;
56116;SDS011;41989;45.356;20.392;2024-02-16T04:58:32;64.07;;;36.13;;
56116;SDS011;41989;45.356;20.392;2024-02-16T05:00:58;59.08;;;35.42;;
56116;SDS011;41989;45.356;20.392;2024-02-16T05:03:25;56.95;;;34.33;;
56116;SDS011;41989;45.356;20.392;2024-02-16T05:05:51;58.42;;;33.80;;
56116;SDS011;41989;45.356;20.392;2024-02-16T05:08:17;55.22;;;33.20;;
56116;SDS011;41989;45.356;20.392;2024-02-16T05:10:43;60.13;;;34.33;;
56116;SDS011;41989;45.356;20.392;2024-02-16T05:13:12;58.85;;;34.90;;
56116;SDS011;41989;45.356;20.392;2024-02-16T05:15:39;65.00;;;37.95;;
56116;SDS011;41989;45.356;20.392;2024-02-16T05:18:05;65.03;;;38.20;;
56116;SDS011;41989;45.356;20.392;2024-02-16T05:20:32;65.03;;;37.58;;
56116;SDS011;41989;45.356;20.392;2024-02-16T05:22:58;63.58;;;37.10;;
56116;SDS011;41989;45.356;20.392;2024-02-16T05:25:24;63.33;;;36.40;;
56116;SDS011;41989;45.356;20.392;2024-02-16T05:27:50;62.63;;;37.42;;
56116;SDS011;41989;45.356;20.392;2024-02-16T05:30:16;63.40;;;37.38;;
56116;SDS011;41989;45.356;20.392;2024-02-16T05:32:43;68.32;;;38.72;;
56116;SDS011;41989;45.356;20.392;2024-02-16T05:35:10;65.68;;;38.30;;
56116;SDS011;41989;45.356;20.392;2024-02-16T05:37:40;65.70;;;39.42;;
56116;SDS011;41989;45.356;20.392;2024-02-16T05:40:09;64.35;;;39.45;;
56116;SDS011;41989;45.356;20.392;2024-02-16T05:42:49;67.32;;;38.03;;
56116;SDS011;41989;45.356;20.392;2024-02-16T05:45:15;66.43;;;38.45;;
56116;SDS011;41989;45.356;20.392;2024-02-16T05:47:41;70.47;;;38.88;;
56116;SDS011;41989;45.356;20.392;2024-02-16T05:50:08;61.63;;;36.92;;
56116;SDS011;41989;45.356;20.392;2024-02-16T05:52:35;66.75;;;34.55;;
56116;SDS011;41989;45.356;20.392;2024-02-16T05:55:01;64.15;;;37.25;;
56116;SDS011;41989;45.356;20.392;2024-02-16T05:57:29;65.13;;;38.38;;
56116;SDS011;41989;45.356;20.392;2024-02-16T05:59:55;69.53;;;39.17;;
56116;SDS011;41989;45.356;20.392;2024-02-16T06:02:21;75.50;;;44.00;;
56116;SDS011;41989;45.356;20.392;2024-02-16T06:04:51;120.47;;;68.13;;
56116;SDS011;41989;45.356;20.392;2024-02-16T06:07:17;100.63;;;53.25;;
56116;SDS011;41989;45.356;20.392;2024-02-16T06:09:43;104.28;;;61.00;;
56116;SDS011;41989;45.356;20.392;2024-02-16T06:12:09;101.82;;;56.17;;
56116;SDS011;41989;45.356;20.392;2024-02-16T06:14:38;100.40;;;54.25;;
56116;SDS011;41989;45.356;20.392;2024-02-16T06:17:04;120.60;;;62.15;;
56116;SDS011;41989;45.356;20.392;2024-02-16T06:19:30;129.80;;;65.10;;
56116;SDS011;41989;45.356;20.392;2024-02-16T06:21:56;122.75;;;64.88;;
56116;SDS011;41989;45.356;20.392;2024-02-16T06:24:23;115.97;;;60.40;;
56116;SDS011;41989;45.356;20.392;2024-02-16T06:26:49;104.93;;;58.95;;
56116;SDS011;41989;45.356;20.392;2024-02-16T06:29:16;106.90;;;61.25;;
56116;SDS011;41989;45.356;20.392;2024-02-16T06:31:45;99.72;;;57.08;;
56116;SDS011;41989;45.356;20.392;2024-02-16T06:34:12;106.55;;;58.72;;
56116;SDS011;41989;45.356;20.392;2024-02-16T06:36:38;102.85;;;58.13;;
56116;SDS011;41989;45.356;20.392;2024-02-16T06:39:04;104.75;;;59.38;;
56116;SDS011;41989;45.356;20.392;2024-02-16T06:41:31;100.20;;;58.17;;
56116;SDS011;41989;45.356;20.392;2024-02-16T06:43:57;98.88;;;56.50;;
56116;SDS011;41989;45.356;20.392;2024-02-16T06:46:23;98.85;;;55.05;;
56116;SDS011;41989;45.356;20.392;2024-02-16T06:48:52;103.18;;;56.83;;
56116;SDS011;41989;45.356;20.392;2024-02-16T06:51:21;97.07;;;55.90;;
56116;SDS011;41989;45.356;20.392;2024-02-16T06:53:47;106.47;;;58.35;;
56116;SDS011;41989;45.356;20.392;2024-02-16T06:56:13;110.05;;;58.38;;
56116;SDS011;41989;45.356;20.392;2024-02-16T06:58:40;111.00;;;62.75;;
56116;SDS011;41989;45.356;20.392;2024-02-16T07:01:06;115.53;;;61.25;;
56116;SDS011;41989;45.356;20.392;2024-02-16T07:03:34;114.95;;;63.95;;
56116;SDS011;41989;45.356;20.392;2024-02-16T07:06:03;103.10;;;59.38;;
56116;SDS011;41989;45.356;20.392;2024-02-16T07:08:32;107.88;;;61.25;;
56116;SDS011;41989;45.356;20.392;2024-02-16T07:10:58;106.40;;;57.58;;
56116;SDS011;41989;45.356;20.392;2024-02-16T07:13:24;109.78;;;57.75;;
56116;SDS011;41989;45.356;20.392;2024-02-16T07:15:51;99.45;;;56.72;;
56116;SDS011;41989;45.356;20.392;2024-02-16T07:18:17;91.85;;;54.33;;
56116;SDS011;41989;45.356;20.392;2024-02-16T07:20:43;96.22;;;55.70;;
56116;SDS011;41989;45.356;20.392;2024-02-16T07:23:09;97.20;;;56.50;;
56116;SDS011;41989;45.356;20.392;2024-02-16T07:25:35;93.57;;;54.92;;
56116;SDS011;41989;45.356;20.392;2024-02-16T07:28:02;111.43;;;67.57;;
56116;SDS011;41989;45.356;20.392;2024-02-16T07:30:28;119.85;;;69.90;;
56116;SDS011;41989;45.356;20.392;2024-02-16T07:32:57;88.75;;;54.70;;
56116;SDS011;41989;45.356;20.392;2024-02-16T07:35:23;83.40;;;48.28;;
56116;SDS011;41989;45.356;20.392;2024-02-16T07:37:50;85.20;;;49.42;;
56116;SDS011;41989;45.356;20.392;2024-02-16T07:40:20;84.82;;;46.53;;
56116;SDS011;41989;45.356;20.392;2024-02-16T07:42:46;82.07;;;46.97;;
56116;SDS011;41989;45.356;20.392;2024-02-16T07:45:12;76.95;;;47.75;;
56116;SDS011;41989;45.356;20.392;2024-02-16T07:47:40;68.22;;;41.13;;
56116;SDS011;41989;45.356;20.392;2024-02-16T07:50:07;62.88;;;41.05;;
56116;SDS011;41989;45.356;20.392;2024-02-16T07:52:33;66.28;;;42.35;;
56116;SDS011;41989;45.356;20.392;2024-02-16T07:54:59;63.20;;;41.42;;
56116;SDS011;41989;45.356;20.392;2024-02-16T07:57:26;64.70;;;40.75;;
56116;SDS011;41989;45.356;20.392;2024-02-16T07:59:52;61.88;;;39.53;;
56116;SDS011;41989;45.356;20.392;2024-02-16T08:02:19;72.38;;;40.08;;
56116;SDS011;41989;45.356;20.392;2024-02-16T08:04:48;62.35;;;40.10;;
56116;SDS011;41989;45.356;20.392;2024-02-16T08:07:14;65.15;;;40.67;;
56116;SDS011;41989;45.356;20.392;2024-02-16T08:09:44;66.05;;;43.00;;
56116;SDS011;41989;45.356;20.392;2024-02-16T08:12:11;65.50;;;42.58;;
56116;SDS011;41989;45.356;20.392;2024-02-16T08:14:38;62.13;;;40.60;;
56116;SDS011;41989;45.356;20.392;2024-02-16T08:17:05;64.70;;;41.55;;
56116;SDS011;41989;45.356;20.392;2024-02-16T08:19:32;65.38;;;42.28;;
56116;SDS011;41989;45.356;20.392;2024-02-16T08:21:59;60.55;;;41.08;;
56116;SDS011;41989;45.356;20.392;2024-02-16T08:24:26;64.05;;;41.65;;
56116;SDS011;41989;45.356;20.392;2024-02-16T08:26:52;57.35;;;39.70;;
56116;SDS011;41989;45.356;20.392;2024-02-16T08:29:18;63.17;;;40.67;;
56116;SDS011;41989;45.356;20.392;2024-02-16T08:31:47;58.42;;;40.58;;
56116;SDS011;41989;45.356;20.392;2024-02-16T08:34:13;62.17;;;37.92;;
56116;SDS011;41989;45.356;20.392;2024-02-16T08:36:43;56.38;;;38.15;;
56116;SDS011;41989;45.356;20.392;2024-02-16T08:39:09;56.67;;;38.33;;
56116;SDS011;41989;45.356;20.392;2024-02-16T08:41:37;59.25;;;38.22;;
56116;SDS011;41989;45.356;20.392;2024-02-16T08:44:03;44.33;;;30.15;;
56116;SDS011;41989;45.356;20.392;2024-02-16T08:46:30;45.00;;;28.20;;
56116;SDS011;41989;45.356;20.392;2024-02-16T08:48:56;46.03;;;29.50;;
56116;SDS011;41989;45.356;20.392;2024-02-16T08:51:22;43.10;;;28.30;;
56116;SDS011;41989;45.356;20.392;2024-02-16T08:53:48;37.28;;;25.67;;
56116;SDS011;41989;45.356;20.392;2024-02-16T08:56:14;43.28;;;27.35;;
56116;SDS011;41989;45.356;20.392;2024-02-16T08:58:41;39.85;;;27.45;;
56116;SDS011;41989;45.356;20.392;2024-02-16T09:01:07;37.15;;;25.63;;
56116;SDS011;41989;45.356;20.392;2024-02-16T09:03:33;41.58;;;27.65;;
56116;SDS011;41989;45.356;20.392;2024-02-16T09:06:03;36.15;;;24.92;;
56116;SDS011;41989;45.356;20.392;2024-02-16T09:08:29;41.63;;;25.33;;
56116;SDS011;41989;45.356;20.392;2024-02-16T09:11:01;39.03;;;26.75;;
56116;SDS011;41989;45.356;20.392;2024-02-16T09:13:36;33.50;;;23.83;;
56116;SDS011;41989;45.356;20.392;2024-02-16T09:16:02;35.78;;;24.65;;
56116;SDS011;41989;45.356;20.392;2024-02-16T09:18:29;36.47;;;24.83;;
56116;SDS011;41989;45.356;20.392;2024-02-16T09:20:55;34.45;;;24.65;;
56116;SDS011;41989;45.356;20.392;2024-02-16T09:23:21;35.08;;;23.88;;
56116;SDS011;41989;45.356;20.392;2024-02-16T09:25:48;33.50;;;24.08;;
56116;SDS011;41989;45.356;20.392;2024-02-16T09:28:15;34.88;;;22.45;;
56116;SDS011;41989;45.356;20.392;2024-02-16T09:30:44;37.35;;;23.00;;
56116;SDS011;41989;45.356;20.392;2024-02-16T09:33:11;37.53;;;23.13;;
56116;SDS011;41989;45.356;20.392;2024-02-16T09:35:38;34.65;;;24.15;;
56116;SDS011;41989;45.356;20.392;2024-02-16T09:38:04;37.22;;;25.58;;
56116;SDS011;41989;45.356;20.392;2024-02-16T09:40:30;35.92;;;23.73;;
56116;SDS011;41989;45.356;20.392;2024-02-16T09:42:56;32.83;;;21.52;;
56116;SDS011;41989;45.356;20.392;2024-02-16T09:45:23;72.57;;;46.50;;
56116;SDS011;41989;45.356;20.392;2024-02-16T09:47:51;28.33;;;19.52;;
56116;SDS011;41989;45.356;20.392;2024-02-16T09:50:17;35.42;;;23.33;;
56116;SDS011;41989;45.356;20.392;2024-02-16T09:52:46;30.83;;;19.55;;
56116;SDS011;41989;45.356;20.392;2024-02-16T09:55:12;27.75;;;19.45;;
56116;SDS011;41989;45.356;20.392;2024-02-16T09:57:39;30.00;;;20.27;;
56116;SDS011;41989;45.356;20.392;2024-02-16T10:00:06;24.40;;;16.83;;
56116;SDS011;41989;45.356;20.392;2024-02-16T10:02:43;22.45;;;17.25;;
56116;SDS011;41989;45.356;20.392;2024-02-16T10:05:13;28.38;;;17.85;;
56116;SDS011;41989;45.356;20.392;2024-02-16T10:07:40;26.80;;;16.98;;
56116;SDS011;41989;45.356;20.392;2024-02-16T10:10:06;21.77;;;13.88;;
56116;SDS011;41989;45.356;20.392;2024-02-16T10:12:32;24.05;;;16.02;;
56116;SDS011;41989;45.356;20.392;2024-02-16T10:14:58;26.40;;;16.35;;
56116;SDS011;41989;45.356;20.392;2024-02-16T10:17:25;49.10;;;38.03;;
56116;SDS011;41989;45.356;20.392;2024-02-16T10:19:58;20.27;;;15.35;;
56116;SDS011;41989;45.356;20.392;2024-02-16T10:22:32;24.58;;;16.77;;
56116;SDS011;41989;45.356;20.392;2024-02-16T10:25:08;25.80;;;16.48;;
56116;SDS011;41989;45.356;20.392;2024-02-16T10:27:38;22.15;;;14.02;;
56116;SDS011;41989;45.356;20.392;2024-02-16T10:30:07;26.88;;;15.98;;
56116;SDS011;41989;45.356;20.392;2024-02-16T10:32:36;19.80;;;14.30;;
56116;SDS011;41989;45.356;20.392;2024-02-16T10:35:04;24.98;;;14.82;;
56116;SDS011;41989;45.356;20.392;2024-02-16T10:37:32;21.42;;;14.45;;
56116;SDS011;41989;45.356;20.392;2024-02-16T10:39:59;28.17;;;13.45;;
56116;SDS011;41989;45.356;20.392;2024-02-16T10:42:28;17.77;;;12.85;;
56116;SDS011;41989;45.356;20.392;2024-02-16T10:44:55;35.97;;;18.40;;
56116;SDS011;41989;45.356;20.392;2024-02-16T10:47:21;26.33;;;14.13;;
56116;SDS011;41989;45.356;20.392;2024-02-16T10:49:47;20.58;;;13.77;;
56116;SDS011;41989;45.356;20.392;2024-02-16T10:52:13;15.35;;;10.70;;
56116;SDS011;41989;45.356;20.392;2024-02-16T10:54:40;17.65;;;12.00;;
56116;SDS011;41989;45.356;20.392;2024-02-16T10:57:08;16.98;;;12.45;;
56116;SDS011;41989;45.356;20.392;2024-02-16T10:59:44;19.52;;;13.07;;
56116;SDS011;41989;45.356;20.392;2024-02-16T11:02:15;21.70;;;13.20;;
56116;SDS011;41989;45.356;20.392;2024-02-16T11:04:45;17.23;;;11.32;;
56116;SDS011;41989;45.356;20.392;2024-02-16T11:07:11;20.65;;;12.32;;
56116;SDS011;41989;45.356;20.392;2024-02-16T11:09:41;18.52;;;12.35;;
56116;SDS011;41989;45.356;20.392;2024-02-16T11:12:07;19.40;;;12.25;;
56116;SDS011;41989;45.356;20.392;2024-02-16T11:14:37;17.77;;;11.80;;
56116;SDS011;41989;45.356;20.392;2024-02-16T11:17:13;21.92;;;13.77;;
56116;SDS011;41989;45.356;20.392;2024-02-16T11:19:40;19.95;;;13.07;;
56116;SDS011;41989;45.356;20.392;2024-02-16T11:22:07;20.63;;;11.68;;
56116;SDS011;41989;45.356;20.392;2024-02-16T11:24:37;20.42;;;11.93;;
56116;SDS011;41989;45.356;20.392;2024-02-16T11:27:04;15.85;;;11.27;;
56116;SDS011;41989;45.356;20.392;2024-02-16T11:29:31;16.67;;;10.55;;
56116;SDS011;41989;45.356;20.392;2024-02-16T11:32:02;20.33;;;11.13;;
56116;SDS011;41989;45.356;20.392;2024-02-16T11:34:28;20.80;;;12.30;;
56116;SDS011;41989;45.356;20.392;2024-02-16T11:36:55;19.13;;;11.32;;
56116;SDS011;41989;45.356;20.392;2024-02-16T11:39:22;14.85;;;10.63;;
56116;SDS011;41989;45.356;20.392;2024-02-16T11:41:48;13.45;;;9.63;;
56116;SDS011;41989;45.356;20.392;2024-02-16T11:44:25;15.48;;;10.77;;
56116;SDS011;41989;45.356;20.392;2024-02-16T11:46:55;15.75;;;10.98;;
56116;SDS011;41989;45.356;20.392;2024-02-16T11:49:21;16.67;;;10.45;;
56116;SDS011;41989;45.356;20.392;2024-02-16T11:51:47;15.38;;;9.63;;
56116;SDS011;41989;45.356;20.392;2024-02-16T11:54:14;16.63;;;10.05;;
56116;SDS011;41989;45.356;20.392;2024-02-16T11:56:44;15.52;;;9.85;;
56116;SDS011;41989;45.356;20.392;2024-02-16T11:59:14;16.27;;;9.60;;
56116;SDS011;41989;45.356;20.392;2024-02-16T12:04:26;14.15;;;9.02;;
56116;SDS011;41989;45.356;20.392;2024-02-16T12:06:56;16.38;;;9.75;;
56116;SDS011;41989;45.356;20.392;2024-02-16T12:09:23;12.45;;;8.90;;
56116;SDS011;41989;45.356;20.392;2024-02-16T12:11:52;15.15;;;9.82;;
56116;SDS011;41989;45.356;20.392;2024-02-16T12:14:19;17.38;;;11.10;;
56116;SDS011;41989;45.356;20.392;2024-02-16T12:16:50;12.95;;;10.18;;
56116;SDS011;41989;45.356;20.392;2024-02-16T12:21:42;17.27;;;12.18;;
56116;SDS011;41989;45.356;20.392;2024-02-16T12:24:08;19.90;;;10.82;;
56116;SDS011;41989;45.356;20.392;2024-02-16T12:26:35;15.15;;;11.35;;
56116;SDS011;41989;45.356;20.392;2024-02-16T12:29:02;44.40;;;27.98;;
56116;SDS011;41989;45.356;20.392;2024-02-16T12:31:29;22.65;;;15.57;;
56116;SDS011;41989;45.356;20.392;2024-02-16T12:33:55;18.42;;;11.82;;
56116;SDS011;41989;45.356;20.392;2024-02-16T12:36:24;19.88;;;11.05;;
56116;SDS011;41989;45.356;20.392;2024-02-16T12:38:51;14.70;;;10.82;;
56116;SDS011;41989;45.356;20.392;2024-02-16T12:41:17;14.38;;;10.48;;
56116;SDS011;41989;45.356;20.392;2024-02-16T12:43:44;14.90;;;9.90;;
56116;SDS011;41989;45.356;20.392;2024-02-16T12:46:10;14.43;;;10.52;;
56116;SDS011;41989;45.356;20.392;2024-02-16T12:48:36;15.68;;;10.68;;
56116;SDS011;41989;45.356;20.392;2024-02-16T12:51:02;16.63;;;11.45;;
56116;SDS011;41989;45.356;20.392;2024-02-16T12:53:31;17.73;;;10.85;;
56116;SDS011;41989;45.356;20.392;2024-02-16T12:56:05;18.80;;;9.75;;
56116;SDS011;41989;45.356;20.392;2024-02-16T12:58:33;14.20;;;10.13;;
56116;SDS011;41989;45.356;20.392;2024-02-16T13:00:59;15.60;;;9.50;;
56116;SDS011;41989;45.356;20.392;2024-02-16T13:03:26;15.90;;;11.57;;
56116;SDS011;41989;45.356;20.392;2024-02-16T13:05:52;15.38;;;10.25;;
56116;SDS011;41989;45.356;20.392;2024-02-16T13:08:18;14.32;;;8.75;;
56116;SDS011;41989;45.356;20.392;2024-02-16T13:10:44;13.00;;;9.27;;
56116;SDS011;41989;45.356;20.392;2024-02-16T13:13:10;16.60;;;9.65;;
56116;SDS011;41989;45.356;20.392;2024-02-16T13:15:36;15.02;;;10.32;;
56116;SDS011;41989;45.356;20.392;2024-02-16T13:18:02;20.38;;;11.10;;
56116;SDS011;41989;45.356;20.392;2024-02-16T13:20:29;17.13;;;10.43;;
56116;SDS011;41989;45.356;20.392;2024-02-16T13:22:55;15.35;;;8.13;;
56116;SDS011;41989;45.356;20.392;2024-02-16T13:25:21;17.73;;;11.75;;
56116;SDS011;41989;45.356;20.392;2024-02-16T13:27:48;16.58;;;10.90;;
56116;SDS011;41989;45.356;20.392;2024-02-16T13:30:14;10.80;;;8.18;;
56116;SDS011;41989;45.356;20.392;2024-02-16T13:32:40;12.45;;;7.97;;
56116;SDS011;41989;45.356;20.392;2024-02-16T13:35:07;12.25;;;7.68;;
56116;SDS011;41989;45.356;20.392;2024-02-16T13:37:33;10.98;;;8.10;;
56116;SDS011;41989;45.356;20.392;2024-02-16T13:39:59;12.45;;;8.48;;
56116;SDS011;41989;45.356;20.392;2024-02-16T13:42:26;15.73;;;9.52;;
56116;SDS011;41989;45.356;20.392;2024-02-16T13:44:53;15.05;;;8.98;;
56116;SDS011;41989;45.356;20.392;2024-02-16T13:47:19;14.57;;;8.70;;
56116;SDS011;41989;45.356;20.392;2024-02-16T13:49:46;10.82;;;8.30;;
56116;SDS011;41989;45.356;20.392;2024-02-16T13:54:41;11.18;;;7.97;;
56116;SDS011;41989;45.356;20.392;2024-02-16T13:57:07;14.23;;;9.13;;
56116;SDS011;41989;45.356;20.392;2024-02-16T13:59:34;12.77;;;8.63;;
56116;SDS011;41989;45.356;20.392;2024-02-16T14:02:00;14.23;;;10.18;;
56116;SDS011;41989;45.356;20.392;2024-02-16T14:04:26;12.82;;;8.35;;
56116;SDS011;41989;45.356;20.392;2024-02-16T14:06:52;15.98;;;9.93;;
56116;SDS011;41989;45.356;20.392;2024-02-16T14:09:19;10.98;;;8.55;;
56116;SDS011;41989;45.356;20.392;2024-02-16T14:11:45;14.85;;;9.15;;